createdAt,value
2019-04-11T04:00:38.688Z,0.00
2019-04-11T04:01:38.125Z,0.00
2019-04-11T04:02:37.232Z,0.00
2019-04-11T04:03:36.779Z,0.00
2019-04-11T04:04:37.099Z,0.00
2019-04-11T04:05:36.895Z,0.00
2019-04-11T04:06:37.380Z,0.00
2019-04-11T04:07:36.053Z,0.00
2019-04-11T04:08:44.459Z,4.00
2019-04-11T04:09:37.253Z,4.00
2019-04-11T04:10:36.212Z,0.00
2019-04-11T04:11:35.961Z,4.00
2019-04-11T04:12:37.696Z,4.00
2019-04-11T04:13:36.786Z,4.00
2019-04-11T04:14:37.186Z,4.00
2019-04-11T04:15:44.216Z,4.00
2019-04-11T04:16:44.735Z,4.00
2019-04-11T04:17:36.850Z,8.00
2019-04-11T04:18:43.725Z,4.00
2019-04-11T04:19:43.819Z,8.00
2019-04-11T04:20:37.030Z,12.00
2019-04-11T04:21:35.803Z,12.00
2019-04-11T04:22:37.610Z,12.00
2019-04-11T04:23:37.805Z,16.00
2019-04-11T04:24:39.781Z,20.00
2019-04-11T04:25:36.739Z,24.00
2019-04-11T04:26:35.768Z,24.00
2019-04-11T04:27:36.020Z,32.00
2019-04-11T04:28:37.498Z,36.00
2019-04-11T04:29:37.673Z,44.00
2019-04-11T04:30:36.160Z,52.00
2019-04-11T04:31:35.718Z,60.00
2019-04-11T04:32:36.293Z,68.00
2019-04-11T04:33:37.750Z,80.00
2019-04-11T04:34:36.509Z,88.00
2019-04-11T04:35:36.363Z,104.00
2019-04-11T04:36:35.653Z,116.00
2019-04-11T04:37:35.638Z,132.00
2019-04-11T04:38:37.640Z,148.00
2019-04-11T04:39:37.053Z,164.00
2019-04-11T04:40:54.159Z,188.00
2019-04-11T04:41:43.386Z,208.00
2019-04-11T04:42:43.072Z,232.00
2019-04-11T04:43:36.640Z,256.00
2019-04-11T04:44:35.568Z,284.00
2019-04-11T04:45:55.193Z,312.00
2019-04-11T04:46:52.509Z,344.00
2019-04-11T04:47:46.184Z,376.00
2019-04-11T04:48:38.030Z,408.00
2019-04-11T04:49:36.498Z,444.00
2019-04-11T04:50:36.643Z,480.00
2019-04-11T04:51:37.118Z,516.00
2019-04-11T04:52:36.716Z,560.00
2019-04-11T04:53:35.712Z,604.00
2019-04-11T04:54:36.487Z,652.00
2019-04-11T04:55:36.740Z,696.00
2019-04-11T04:56:36.919Z,748.00
2019-04-11T04:57:37.398Z,808.00
2019-04-11T04:58:35.429Z,864.00
2019-04-11T04:59:37.495Z,924.00
2019-04-11T05:00:35.404Z,988.00
2019-04-11T05:01:37.165Z,1052.00
2019-04-11T05:02:37.151Z,1120.00
2019-04-11T05:03:35.599Z,1192.00
2019-04-11T05:04:36.114Z,1264.00
2019-04-11T05:05:35.740Z,1340.00
2019-04-11T05:06:36.498Z,1416.00
2019-04-11T05:07:40.167Z,1492.00
2019-04-11T05:08:36.372Z,1580.00
2019-04-11T05:09:36.171Z,1660.00
2019-04-11T05:10:35.948Z,1744.00
2019-04-11T05:11:36.151Z,1828.00
2019-04-11T05:12:36.561Z,1916.00
2019-04-11T05:13:36.653Z,2012.00
2019-04-11T05:14:35.248Z,2100.00
2019-04-11T05:15:36.479Z,2192.00
2019-04-11T05:16:35.732Z,2284.00
2019-04-11T05:17:36.319Z,2380.00
2019-04-11T05:18:36.198Z,2480.00
2019-04-11T05:19:35.191Z,2580.00
2019-04-11T05:20:36.312Z,2680.00
2019-04-11T05:21:35.233Z,2784.00
2019-04-11T05:22:35.288Z,2880.00
2019-04-11T05:23:35.149Z,2976.00
2019-04-11T05:24:35.142Z,3076.00
2019-04-11T05:25:35.130Z,3172.00
2019-04-11T05:26:35.490Z,3264.00
2019-04-11T05:27:35.754Z,3364.00
2019-04-11T05:28:35.365Z,3468.00
2019-04-11T05:29:35.619Z,3568.00
2019-04-11T05:30:36.329Z,3672.00
2019-04-11T05:31:35.068Z,3764.00
2019-04-11T05:32:35.396Z,3864.00
2019-04-11T05:33:35.057Z,3976.00
2019-04-11T05:34:35.222Z,4236.00
2019-04-11T05:35:36.171Z,4800.00
2019-04-11T05:36:35.014Z,5512.00
2019-04-11T05:37:36.180Z,5760.00
2019-04-11T05:38:35.956Z,6136.00
2019-04-11T05:39:35.917Z,8180.00
2019-04-11T05:40:34.997Z,12256.00
2019-04-11T05:41:34.960Z,13632.00
2019-04-11T05:42:35.540Z,12320.00
2019-04-11T05:43:37.322Z,12352.00
2019-04-11T05:44:37.586Z,12960.00
2019-04-11T05:45:35.924Z,15424.00
2019-04-11T05:46:47.292Z,20032.00
2019-04-11T05:47:35.892Z,20608.00
2019-04-11T05:48:34.886Z,21152.00
2019-04-11T05:49:38.454Z,20768.00
2019-04-11T05:50:36.170Z,19072.00
2019-04-11T05:51:40.882Z,19584.00
2019-04-11T05:52:36.674Z,21952.00
2019-04-11T05:53:36.598Z,23840.00
2019-04-11T05:54:36.472Z,24480.00
2019-04-11T05:55:34.808Z,24576.00
2019-04-11T05:56:35.438Z,24576.00
2019-04-11T05:57:38.095Z,24544.00
2019-04-11T05:58:34.774Z,24480.00
2019-04-11T05:59:34.829Z,24480.00
2019-04-11T06:00:34.771Z,25408.00
2019-04-11T06:01:34.761Z,26272.00
2019-04-11T06:02:35.327Z,24992.00
2019-04-11T06:03:39.429Z,24288.00
2019-04-11T06:04:36.366Z,25600.00
2019-04-11T06:05:36.022Z,26784.00
2019-04-11T06:06:38.558Z,27136.00
2019-04-11T06:07:40.067Z,27392.00
2019-04-11T06:08:35.768Z,27744.00
2019-04-11T06:09:38.171Z,27680.00
2019-04-11T06:10:37.049Z,27968.00
2019-04-11T06:11:36.867Z,27904.00
2019-04-11T06:12:35.902Z,26944.00
2019-04-11T06:13:34.616Z,26656.00
2019-04-11T06:14:35.385Z,27232.00
2019-04-11T06:15:36.315Z,27488.00
2019-04-11T06:16:39.537Z,28096.00
2019-04-11T06:17:36.520Z,28992.00
2019-04-11T06:18:37.789Z,28576.00
2019-04-11T06:19:35.549Z,29152.00
2019-04-11T06:20:35.583Z,28416.00
2019-04-11T06:21:34.544Z,28512.00
2019-04-11T06:22:34.561Z,27936.00
2019-04-11T06:23:35.088Z,27648.00
2019-04-11T06:24:34.495Z,27808.00
2019-04-11T06:25:37.184Z,27456.00
2019-04-11T06:26:34.603Z,26656.00
2019-04-11T06:27:36.056Z,26304.00
2019-04-11T06:28:34.479Z,26112.00
2019-04-11T06:29:34.888Z,26144.00
2019-04-11T06:30:34.651Z,26816.00
2019-04-11T06:31:34.432Z,25312.00
2019-04-11T06:32:34.409Z,24864.00
2019-04-11T06:33:34.538Z,26176.00
2019-04-11T06:34:35.477Z,25088.00
2019-04-11T06:35:34.387Z,25216.00
2019-04-11T06:36:41.902Z,24544.00
2019-04-11T06:37:41.896Z,25440.00
2019-04-11T06:38:42.853Z,26368.00
2019-04-11T06:39:41.882Z,27008.00
2019-04-11T06:40:34.699Z,26496.00
2019-04-11T06:41:34.759Z,25600.00
2019-04-11T06:42:35.040Z,24384.00
2019-04-11T06:43:34.296Z,24544.00
2019-04-11T06:44:34.325Z,23616.00
2019-04-11T06:45:34.269Z,20096.00
2019-04-11T06:46:35.420Z,15424.00
2019-04-11T06:47:35.264Z,14044.00
2019-04-11T06:48:34.254Z,13924.00
2019-04-11T06:49:34.251Z,14144.00
2019-04-11T06:50:35.377Z,14092.00
2019-04-11T06:51:34.200Z,13852.00
2019-04-11T06:52:34.962Z,13812.00
2019-04-11T06:53:34.390Z,13460.00
2019-04-11T06:54:34.176Z,14072.00
2019-04-11T06:55:35.034Z,13956.00
2019-04-11T06:56:34.883Z,13964.00
2019-04-11T06:57:34.232Z,14880.00
2019-04-11T06:58:35.142Z,15744.00
2019-04-11T06:59:34.482Z,17376.00
2019-04-11T07:00:34.105Z,17152.00
2019-04-11T07:01:34.271Z,14396.00
2019-04-11T07:02:34.182Z,20288.00
2019-04-11T07:03:34.074Z,19424.00
2019-04-11T07:04:34.070Z,22112.00
2019-04-11T07:05:35.155Z,18048.00
2019-04-11T07:06:34.033Z,20832.00
2019-04-11T07:07:35.976Z,19776.00
2019-04-11T07:08:34.257Z,16736.00
2019-04-11T07:09:34.945Z,12892.00
2019-04-11T07:10:34.186Z,12960.00
2019-04-11T07:11:34.190Z,15744.00
2019-04-11T07:12:34.949Z,16000.00
2019-04-11T07:13:33.959Z,14392.00
2019-04-11T07:14:33.944Z,13504.00
2019-04-11T07:15:33.945Z,13060.00
2019-04-11T07:16:34.117Z,12836.00
2019-04-11T07:17:33.962Z,12592.00
2019-04-11T07:18:33.921Z,12408.00
2019-04-11T07:19:35.120Z,12140.00
2019-04-11T07:20:33.877Z,12148.00
2019-04-11T07:21:33.872Z,12184.00
2019-04-11T07:22:34.783Z,12228.00
2019-04-11T07:23:33.848Z,12148.00
2019-04-11T07:24:33.848Z,11992.00
2019-04-11T07:25:33.820Z,12036.00
2019-04-11T07:26:35.035Z,12012.00
2019-04-11T07:27:34.539Z,11940.00
2019-04-11T07:28:33.792Z,11856.00
2019-04-11T07:29:33.866Z,11668.00
2019-04-11T07:30:33.772Z,11636.00
2019-04-11T07:31:33.761Z,11632.00
2019-04-11T07:32:34.270Z,11580.00
2019-04-11T07:33:33.735Z,11492.00
2019-04-11T07:34:36.193Z,11496.00
2019-04-11T07:35:33.759Z,11416.00
2019-04-11T07:36:33.922Z,11324.00
2019-04-11T07:37:33.697Z,11172.00
2019-04-11T07:38:33.944Z,11072.00
2019-04-11T07:39:33.761Z,10980.00
2019-04-11T07:40:35.132Z,10980.00
2019-04-11T07:41:34.012Z,10840.00
2019-04-11T07:42:35.759Z,10708.00
2019-04-11T07:43:33.660Z,10612.00
2019-04-11T07:44:34.087Z,10500.00
2019-04-11T07:45:34.380Z,10396.00
2019-04-11T07:46:33.592Z,10336.00
2019-04-11T07:47:33.593Z,10224.00
2019-04-11T07:48:33.798Z,10080.00
2019-04-11T07:49:33.568Z,10020.00
2019-04-11T07:50:33.559Z,9960.00
2019-04-11T07:51:34.348Z,9812.00
2019-04-11T07:52:34.501Z,9828.00
2019-04-11T07:53:33.778Z,9724.00
2019-04-11T07:54:34.594Z,9712.00
2019-04-11T07:55:34.429Z,9668.00
2019-04-11T07:56:33.494Z,9608.00
2019-04-11T07:57:33.480Z,9572.00
2019-04-11T13:57:35.725Z,5772.00
2019-04-11T14:06:47.148Z,5680.00
2019-04-11T14:30:08.916Z,5492.00
2019-04-11T14:35:58.701Z,5348.00
2019-04-11T14:40:15.848Z,5388.00
2019-04-11T14:41:13.010Z,5376.00
2019-04-11T14:42:13.058Z,5336.00
2019-04-11T14:43:13.667Z,5292.00
2019-04-11T14:47:08.142Z,5304.00
2019-04-11T14:50:45.162Z,5308.00
2019-04-11T14:51:46.270Z,5292.00
2019-04-11T14:55:31.498Z,5252.00
2019-04-11T15:04:33.159Z,5048.00
2019-04-11T15:15:49.972Z,4964.00
2019-04-11T15:27:00.791Z,4796.00
2019-04-11T15:30:32.811Z,4732.00
2019-04-11T15:31:43.315Z,4716.00
2019-04-11T15:40:49.824Z,4588.00
